createdAt,value
2018-11-14T00:00:31.440Z,84.56
2018-11-14T00:03:03.083Z,83.74
2018-11-14T00:05:33.376Z,83.97
2018-11-14T00:08:04.223Z,83.71
2018-11-14T00:10:34.832Z,83.21
2018-11-14T00:13:05.671Z,83.86
2018-11-14T00:15:36.266Z,82.96
2018-11-14T00:18:07.499Z,83.23
2018-11-14T00:20:37.839Z,82.80
2018-11-14T00:23:08.468Z,83.23
2018-11-14T00:25:39.060Z,83.29
2018-11-14T00:28:09.644Z,83.63
2018-11-14T00:30:40.279Z,83.46
2018-11-14T00:33:10.917Z,83.55
2018-11-14T00:35:42.021Z,83.90
2018-11-14T00:38:12.964Z,84.58
2018-11-14T00:40:43.839Z,84.01
2018-11-14T00:43:14.412Z,84.58
2018-11-14T00:45:45.007Z,85.05
2018-11-14T00:48:16.522Z,84.81
2018-11-14T00:50:47.088Z,84.61
2018-11-14T00:53:17.616Z,84.66
2018-11-14T00:55:48.811Z,85.05
2018-11-14T00:58:19.641Z,83.96
2018-11-14T01:00:50.708Z,83.77
2018-11-14T01:03:21.254Z,83.43
2018-11-14T01:05:51.853Z,82.85
2018-11-14T01:08:22.410Z,81.16
2018-11-14T01:10:53.596Z,81.40
2018-11-14T01:13:24.424Z,82.39
2018-11-14T01:15:55.004Z,83.37
2018-11-14T01:18:25.849Z,82.95
2018-11-14T01:20:56.436Z,83.53
2018-11-14T01:23:27.948Z,82.56
2018-11-14T01:25:58.821Z,83.93
2018-11-14T01:28:29.657Z,84.22
2018-11-14T01:31:00.513Z,84.98
2018-11-14T01:33:31.381Z,85.14
2018-11-14T01:36:01.941Z,85.06
2018-11-14T01:38:32.532Z,84.38
2018-11-14T01:41:03.440Z,84.84
2018-11-14T01:43:34.184Z,84.84
2018-11-14T01:46:05.374Z,85.03
2018-11-14T01:48:36.227Z,85.13
2018-11-14T01:51:07.106Z,84.82
2018-11-14T01:53:38.059Z,85.01
2018-11-14T01:56:08.734Z,84.73
2018-11-14T01:58:39.298Z,85.43
2018-11-14T02:01:10.231Z,85.01
2018-11-14T02:03:41.064Z,85.05
2018-11-14T02:06:11.889Z,85.18
2018-11-14T02:08:43.460Z,85.89
2018-11-14T02:11:14.476Z,84.87
2018-11-14T02:13:45.052Z,85.82
2018-11-14T02:16:15.899Z,85.73
2018-11-14T02:18:46.495Z,85.16
2018-11-14T02:21:17.416Z,84.66
2018-11-14T02:23:48.263Z,85.11
2018-11-14T02:26:18.572Z,84.48
2018-11-14T02:28:51.261Z,84.53
2018-11-14T02:31:22.204Z,84.76
2018-11-14T02:33:52.767Z,85.24
2018-11-14T02:36:23.672Z,84.16
2018-11-14T02:38:54.240Z,84.74
2018-11-14T02:41:24.808Z,84.82
2018-11-14T02:43:55.392Z,85.34
2018-11-14T02:46:26.237Z,84.31
2018-11-14T02:48:57.157Z,84.98
2018-11-14T02:51:29.024Z,84.04
2018-11-14T02:53:59.579Z,83.31
2018-11-14T02:56:30.449Z,83.78
2018-11-14T02:59:01.052Z,82.49
2018-11-14T03:01:31.908Z,82.83
2018-11-14T03:04:02.743Z,82.86
2018-11-14T03:06:33.598Z,81.93
2018-11-14T03:09:06.696Z,83.06
2018-11-14T03:11:37.569Z,83.53
2018-11-14T03:14:08.427Z,83.53
2018-11-14T03:16:39.370Z,82.88
2018-11-14T03:19:10.179Z,82.79
2018-11-14T03:21:41.028Z,82.93
2018-11-14T03:24:11.591Z,82.93
2018-11-14T03:26:42.444Z,83.25
2018-11-14T03:29:13.335Z,83.10
2018-11-14T03:31:43.965Z,84.06
2018-11-14T03:34:14.767Z,84.54
2018-11-14T03:36:46.155Z,85.13
2018-11-14T03:39:16.968Z,85.23
2018-11-14T03:41:48.359Z,83.30
2018-11-14T03:44:20.160Z,84.29
2018-11-14T03:46:51.011Z,84.47
2018-11-14T03:49:21.583Z,84.33
2018-11-14T03:51:53.121Z,84.44
2018-11-14T03:54:23.961Z,83.55
2018-11-14T03:56:54.822Z,84.02
2018-11-14T03:59:25.670Z,83.95
2018-11-14T04:01:56.211Z,84.10
2018-11-14T04:04:27.068Z,84.56
2018-11-14T04:06:57.919Z,84.69
2018-11-14T04:09:29.239Z,85.32
2018-11-14T04:12:00.283Z,85.04
2018-11-14T04:14:31.352Z,85.14
2018-11-14T04:17:02.181Z,84.26
2018-11-14T04:19:33.055Z,83.58
2018-11-14T04:22:03.888Z,84.77
2018-11-14T04:24:34.728Z,84.08
2018-11-14T04:27:05.889Z,84.68
2018-11-14T04:29:36.746Z,84.31
2018-11-14T04:32:07.572Z,84.33
2018-11-14T04:34:38.420Z,84.93
2018-11-14T04:37:10.171Z,84.75
2018-11-14T04:39:41.048Z,84.41
2018-11-14T04:42:13.180Z,84.78
2018-11-14T04:44:44.089Z,85.01
2018-11-14T04:47:14.946Z,84.95
2018-11-14T04:49:45.818Z,84.92
2018-11-14T04:52:16.867Z,85.09
2018-11-14T04:54:47.747Z,84.78
2018-11-14T04:57:20.007Z,84.59
2018-11-14T04:59:50.892Z,84.56
2018-11-14T05:02:21.769Z,84.68
2018-11-14T05:04:53.804Z,84.33
2018-11-14T05:07:24.655Z,84.46
2018-11-14T05:09:55.511Z,84.91
2018-11-14T05:12:26.367Z,85.32
2018-11-14T05:14:57.300Z,84.83
2018-11-14T05:17:28.123Z,85.40
2018-11-14T05:20:01.191Z,84.73
2018-11-14T05:22:32.921Z,84.77
2018-11-14T05:25:04.100Z,85.05
2018-11-14T05:27:34.926Z,85.72
2018-11-14T05:30:10.522Z,85.68
2018-11-14T05:32:41.796Z,85.06
2018-11-14T05:35:13.692Z,84.75
2018-11-14T05:37:44.648Z,85.89
2018-11-14T05:40:17.153Z,84.84
2018-11-14T05:42:48.756Z,81.88
2018-11-14T05:45:22.590Z,82.18
2018-11-14T05:47:53.629Z,82.00
2018-11-14T05:50:24.903Z,81.61
2018-11-14T05:52:55.762Z,81.97
2018-11-14T05:55:26.915Z,83.11
2018-11-14T05:57:57.777Z,82.92
2018-11-14T06:00:30.747Z,83.05
2018-11-14T06:03:02.992Z,83.09
2018-11-14T06:05:33.875Z,83.42
2018-11-14T06:08:04.995Z,81.55
2018-11-14T06:10:35.863Z,82.27
2018-11-14T06:13:06.853Z,82.91
2018-11-14T06:15:37.731Z,83.33
2018-11-14T06:18:08.699Z,82.39
2018-11-14T06:20:39.564Z,83.14
2018-11-14T06:23:10.447Z,83.28
2018-11-14T06:25:41.301Z,84.51
2018-11-14T06:28:12.958Z,84.29
2018-11-14T06:30:43.807Z,84.10
2018-11-14T06:33:14.707Z,83.33
2018-11-14T06:35:45.546Z,84.07
2018-11-14T06:38:16.436Z,83.86
2018-11-14T06:40:47.269Z,83.84
2018-11-14T06:43:18.275Z,84.34
2018-11-14T06:45:49.124Z,85.01
2018-11-14T06:48:19.980Z,84.43
2018-11-14T06:50:50.820Z,85.06
2018-11-14T06:53:21.715Z,84.46
2018-11-14T06:55:52.572Z,85.03
2018-11-14T06:58:23.445Z,85.00
2018-11-14T07:00:54.306Z,84.21
2018-11-14T07:03:25.481Z,85.35
2018-11-14T07:05:56.491Z,84.90
2018-11-14T07:08:27.490Z,85.33
2018-11-14T07:10:58.347Z,83.80
2018-11-14T07:13:29.404Z,83.50
2018-11-14T07:16:00.267Z,83.79
2018-11-14T07:18:31.144Z,83.75
2018-11-14T07:21:02.031Z,83.05
2018-11-14T07:23:32.890Z,83.32
2018-11-14T07:26:03.755Z,82.61
2018-11-14T07:28:34.623Z,82.72
2018-11-14T07:31:05.996Z,83.25
2018-11-14T07:33:36.618Z,83.71
2018-11-14T07:36:08.387Z,83.46
2018-11-14T07:38:41.380Z,84.23
2018-11-14T07:41:23.599Z,83.76
2018-11-14T07:43:54.767Z,84.24
2018-11-14T07:46:26.752Z,84.63
2018-11-14T07:48:57.735Z,83.80
2018-11-14T07:51:29.219Z,84.24
2018-11-14T07:54:00.352Z,83.54
2018-11-14T07:56:31.280Z,82.70
2018-11-14T07:59:02.143Z,82.58
2018-11-14T08:01:32.708Z,82.87
2018-11-14T08:04:03.946Z,83.13
2018-11-14T08:06:34.760Z,83.34
2018-11-14T08:09:07.374Z,82.96
2018-11-14T08:11:38.957Z,84.56
2018-11-14T08:14:09.551Z,83.35
2018-11-14T08:16:40.416Z,83.33
2018-11-14T08:19:11.312Z,84.53
2018-11-14T08:21:41.955Z,83.68
2018-11-14T08:24:12.854Z,83.14
2018-11-14T08:26:43.629Z,83.18
2018-11-14T08:29:14.522Z,83.61
2018-11-14T08:31:45.409Z,84.35
2018-11-14T08:34:16.024Z,84.22
2018-11-14T08:36:46.608Z,83.83
2018-11-14T08:39:17.290Z,82.83
2018-11-14T08:41:48.228Z,83.21
2018-11-14T08:44:18.843Z,82.79
2018-11-14T08:46:49.452Z,83.01
2018-11-14T08:49:20.062Z,81.50
2018-11-14T08:51:51.233Z,82.16
2018-11-14T08:54:21.815Z,82.88
2018-11-14T08:56:52.446Z,83.34
2018-11-14T08:59:23.757Z,83.66
2018-11-14T09:01:54.957Z,82.38
2018-11-14T09:04:25.574Z,83.22
2018-11-14T09:06:56.174Z,83.35
2018-11-14T09:09:26.936Z,82.86
2018-11-14T09:11:57.765Z,82.10
2018-11-14T09:14:28.379Z,81.93
2018-11-14T09:16:59.147Z,81.52
2018-11-14T09:19:29.744Z,82.91
2018-11-14T09:22:00.324Z,83.75
2018-11-14T09:24:31.249Z,83.36
2018-11-14T09:27:01.852Z,82.11
2018-11-14T09:29:32.452Z,81.92
2018-11-14T09:32:03.083Z,82.49
2018-11-14T09:34:33.964Z,82.38
2018-11-14T09:37:05.117Z,83.11
2018-11-14T09:39:35.739Z,82.83
2018-11-14T09:42:07.358Z,82.69
2018-11-14T09:44:38.043Z,82.39
2018-11-14T09:47:08.807Z,83.65
2018-11-14T09:49:39.388Z,83.61
2018-11-14T09:52:09.720Z,83.22
2018-11-14T09:54:40.299Z,83.70
2018-11-14T09:57:10.917Z,84.25
2018-11-14T09:59:41.511Z,84.54
2018-11-14T10:02:12.520Z,84.86
2018-11-14T10:04:43.983Z,84.94
2018-11-14T10:07:14.821Z,82.73
2018-11-14T10:09:45.388Z,82.43
2018-11-14T10:12:16.924Z,81.72
2018-11-14T10:14:48.568Z,80.97
2018-11-14T10:17:19.164Z,81.10
2018-11-14T10:19:49.756Z,80.56
2018-11-14T10:22:20.340Z,80.46
2018-11-14T10:24:50.950Z,80.12
2018-11-14T10:27:21.841Z,80.96
2018-11-14T10:29:52.441Z,80.28
2018-11-14T10:32:23.119Z,80.52
2018-11-14T10:34:53.707Z,79.77
2018-11-14T10:37:24.578Z,78.63
2018-11-14T10:39:55.192Z,78.49
2018-11-14T10:42:25.865Z,78.51
2018-11-14T10:44:56.465Z,79.02
2018-11-14T10:47:27.074Z,78.82
2018-11-14T10:49:57.654Z,77.82
2018-11-14T10:52:28.491Z,77.43
2018-11-14T10:54:59.062Z,76.99
2018-11-14T10:57:29.937Z,76.54
2018-11-14T11:00:00.551Z,75.94
2018-11-14T11:02:36.818Z,74.52
2018-11-14T11:05:12.784Z,71.65
2018-11-14T11:07:48.525Z,71.67
2018-11-14T11:10:24.445Z,71.02
2018-11-14T11:13:02.455Z,70.87
2018-11-14T11:15:39.056Z,69.75
2018-11-14T11:18:11.677Z,69.83
2018-11-14T11:20:42.909Z,69.92
2018-11-14T11:23:13.583Z,69.65
2018-11-14T11:25:44.352Z,68.92
2018-11-14T11:28:15.036Z,68.46
2018-11-14T11:30:46.093Z,66.87
2018-11-14T11:33:17.168Z,67.81
2018-11-14T11:35:48.096Z,67.77
2018-11-14T11:38:18.923Z,69.18
2018-11-14T11:40:49.565Z,67.61
2018-11-14T11:43:20.344Z,67.67
2018-11-14T11:45:52.575Z,67.51
2018-11-14T11:48:23.144Z,67.96
2018-11-14T11:50:53.822Z,67.42
2018-11-14T11:53:24.534Z,66.89
2018-11-14T11:55:55.168Z,66.44
2018-11-14T11:58:25.717Z,66.77
2018-11-14T12:00:56.324Z,67.12
2018-11-14T12:03:26.884Z,67.26
2018-11-14T12:05:57.893Z,67.85
2018-11-14T12:08:28.629Z,66.99
2018-11-14T12:10:59.340Z,67.02
2018-11-14T12:13:29.941Z,66.37
2018-11-14T12:16:00.696Z,66.23
2018-11-14T12:18:31.320Z,66.00
2018-11-14T12:21:01.936Z,65.96
2018-11-14T12:23:32.604Z,66.51
2018-11-14T12:26:03.720Z,66.25
2018-11-14T12:28:34.399Z,66.11
2018-11-14T12:31:05.221Z,65.53
2018-11-14T12:33:35.928Z,65.78
2018-11-14T12:36:07.200Z,65.65
2018-11-14T12:38:37.856Z,65.66
2018-11-14T12:41:08.659Z,65.51
2018-11-14T12:43:39.367Z,65.44
2018-11-14T12:46:09.996Z,65.51
2018-11-14T12:48:40.581Z,64.92
2018-11-14T12:51:11.164Z,64.90
2018-11-14T12:53:42.022Z,65.03
2018-11-14T12:56:12.864Z,64.02
2018-11-14T12:58:43.477Z,65.15
2018-11-14T13:01:14.277Z,64.17
2018-11-14T13:03:46.084Z,64.18
2018-11-14T13:06:16.385Z,64.47
2018-11-14T13:08:47.036Z,64.35
2018-11-14T13:11:17.914Z,64.69
2018-11-14T13:13:49.513Z,63.72
2018-11-14T13:16:20.115Z,64.05
2018-11-14T13:18:50.719Z,64.22
2018-11-14T13:21:21.372Z,63.58
2018-11-14T13:23:51.980Z,64.00
2018-11-14T13:26:22.575Z,64.69
2018-11-14T13:28:53.219Z,63.63
2018-11-14T13:31:23.995Z,62.86
2018-11-14T13:33:54.624Z,62.72
2018-11-14T13:36:26.181Z,62.70
2018-11-14T13:38:56.757Z,63.12
2018-11-14T13:41:27.364Z,63.17
2018-11-14T13:43:57.940Z,63.58
2018-11-14T13:46:28.545Z,63.20
2018-11-14T13:48:59.204Z,63.40
2018-11-14T13:51:30.910Z,62.39
2018-11-14T13:54:01.548Z,62.74
2018-11-14T13:56:32.123Z,63.13
2018-11-14T13:59:02.685Z,63.45
2018-11-14T14:01:33.211Z,62.52
2018-11-14T14:04:04.173Z,62.77
2018-11-14T14:06:34.782Z,63.06
2018-11-14T14:09:08.340Z,62.94
2018-11-14T14:11:39.144Z,62.97
2018-11-14T14:14:17.030Z,63.41
2018-11-14T14:16:47.693Z,63.16
2018-11-14T14:19:18.357Z,63.56
2018-11-14T14:21:48.988Z,64.07
2018-11-14T14:24:19.556Z,64.35
2018-11-14T14:26:50.496Z,64.32
2018-11-14T14:29:21.104Z,64.22
2018-11-14T14:31:51.700Z,65.12
2018-11-14T14:34:22.441Z,65.22
2018-11-14T14:36:53.603Z,65.29
2018-11-14T14:39:24.800Z,64.99
2018-11-14T14:41:55.474Z,65.76
2018-11-14T14:44:26.061Z,65.44
2018-11-14T14:46:56.645Z,64.72
2018-11-14T14:49:27.248Z,65.20
2018-11-14T14:51:57.844Z,65.50
2018-11-14T14:54:28.433Z,65.55
2018-11-14T14:56:59.007Z,65.89
2018-11-14T14:59:29.837Z,65.92
2018-11-14T15:02:00.463Z,65.47
2018-11-14T15:04:31.348Z,66.00
2018-11-14T15:07:01.945Z,65.91
2018-11-14T15:09:33.308Z,66.19
2018-11-14T15:12:04.415Z,66.34
2018-11-14T15:14:35.292Z,66.42
2018-11-14T15:17:05.938Z,66.79
2018-11-14T15:19:36.507Z,66.67
2018-11-14T15:22:07.124Z,67.36
2018-11-14T15:24:37.720Z,67.43
2018-11-14T15:27:08.367Z,67.66
2018-11-14T15:29:39.127Z,68.11
2018-11-14T15:32:10.882Z,68.76
2018-11-14T15:34:41.539Z,68.76
2018-11-14T15:37:12.160Z,69.44
2018-11-14T15:39:42.805Z,69.84
2018-11-14T15:42:13.420Z,70.43
2018-11-14T15:44:44.967Z,70.57
2018-11-14T15:47:16.088Z,70.81
2018-11-14T15:49:46.749Z,71.04
2018-11-14T15:52:17.344Z,71.53
2018-11-14T15:54:47.972Z,71.64
2018-11-14T15:57:18.559Z,72.30
2018-11-14T15:59:49.172Z,72.21
2018-11-14T16:02:19.776Z,72.13
2018-11-14T16:04:50.542Z,72.62
2018-11-14T16:07:21.212Z,72.88
2018-11-14T16:09:52.716Z,73.03
2018-11-14T16:12:23.563Z,73.14
2018-11-14T16:14:54.308Z,73.97
2018-11-14T16:17:24.964Z,73.90
2018-11-14T16:19:55.581Z,73.75
2018-11-14T16:22:26.701Z,74.50
2018-11-14T16:24:57.373Z,74.13
2018-11-14T16:27:28.780Z,74.46
2018-11-14T16:29:59.529Z,74.25
2018-11-14T16:32:30.396Z,74.76
2018-11-14T16:35:01.133Z,74.25
2018-11-14T16:37:31.769Z,74.84
2018-11-14T16:40:02.487Z,75.42
2018-11-14T16:42:32.825Z,75.55
2018-11-14T16:45:06.036Z,75.61
2018-11-14T16:47:36.924Z,76.51
2018-11-14T16:50:09.032Z,76.76
2018-11-14T16:52:39.710Z,76.79
2018-11-14T16:55:12.776Z,77.04
2018-11-14T16:57:44.415Z,77.18
2018-11-14T17:00:20.886Z,77.96
2018-11-14T17:02:51.283Z,77.58
2018-11-14T17:05:22.887Z,78.25
2018-11-14T17:07:53.700Z,78.37
2018-11-14T17:10:24.809Z,77.87
2018-11-14T17:12:57.055Z,78.34
2018-11-14T17:15:28.232Z,78.96
2018-11-14T17:17:59.308Z,78.59
2018-11-14T17:20:30.020Z,78.45
2018-11-14T17:23:01.061Z,79.05
2018-11-14T17:25:32.036Z,78.60
2018-11-14T17:28:02.920Z,79.27
2018-11-14T17:30:33.598Z,79.52
2018-11-14T17:33:04.219Z,78.85
2018-11-14T17:35:34.888Z,79.12
2018-11-14T17:38:06.036Z,79.52
2018-11-14T17:40:36.699Z,80.00
2018-11-14T17:43:07.503Z,80.02
2018-11-14T17:45:38.148Z,80.39
2018-11-14T17:48:09.478Z,80.67
2018-11-14T17:50:40.290Z,81.30
2018-11-14T17:53:11.266Z,81.94
2018-11-14T17:55:42.156Z,82.00
2018-11-14T17:58:12.808Z,81.91
2018-11-14T18:00:43.459Z,82.64
2018-11-14T18:03:14.169Z,82.38
2018-11-14T18:05:45.189Z,82.12
2018-11-14T18:08:15.787Z,83.31
2018-11-14T18:10:46.562Z,82.92
2018-11-14T18:13:17.724Z,83.37
2018-11-14T18:15:48.389Z,83.78
2018-11-14T18:18:19.036Z,83.72
2018-11-14T18:20:49.756Z,83.59
2018-11-14T18:23:20.391Z,84.05
2018-11-14T18:25:51.029Z,84.40
2018-11-14T18:28:21.645Z,83.57
2018-11-14T18:30:52.278Z,84.07
2018-11-14T18:33:22.896Z,84.22
2018-11-14T18:35:53.546Z,84.47
2018-11-14T18:38:24.345Z,84.20
2018-11-14T18:40:55.117Z,84.55
2018-11-14T18:43:25.795Z,84.42
2018-11-14T18:45:56.497Z,83.97
2018-11-14T18:48:27.247Z,84.90
2018-11-14T18:50:57.922Z,84.81
2018-11-14T18:53:28.749Z,84.84
2018-11-14T18:55:59.679Z,84.81
2018-11-14T18:58:30.303Z,84.62
2018-11-14T19:01:00.939Z,84.59
2018-11-14T19:03:31.547Z,84.38
2018-11-14T19:06:02.189Z,84.87
2018-11-14T19:08:32.800Z,84.61
2018-11-14T19:11:03.804Z,84.27
2018-11-14T19:13:34.427Z,84.76
2018-11-14T19:16:05.470Z,83.87
2018-11-14T19:18:36.180Z,84.54
2018-11-14T19:21:07.609Z,84.67
2018-11-14T19:23:38.383Z,84.96
2018-11-14T19:26:09.544Z,84.47
2018-11-14T19:28:40.269Z,83.62
2018-11-14T19:31:11.181Z,84.03
2018-11-14T19:33:41.810Z,84.40
2018-11-14T19:36:12.812Z,84.29
2018-11-14T19:38:43.468Z,84.15
2018-11-14T19:41:14.214Z,84.09
2018-11-14T19:43:45.992Z,84.43
2018-11-14T19:46:16.708Z,83.66
2018-11-14T19:48:47.349Z,83.99
2018-11-14T19:51:18.160Z,83.74
2018-11-14T19:53:48.928Z,83.04
2018-11-14T19:56:19.830Z,82.52
2018-11-14T19:58:50.550Z,81.68
2018-11-14T20:01:21.273Z,82.39
2018-11-14T20:03:52.044Z,82.24
2018-11-14T20:06:23.198Z,82.70
2018-11-14T20:08:53.627Z,82.48
2018-11-14T20:11:25.427Z,82.37
2018-11-14T20:13:56.136Z,82.80
2018-11-14T20:16:27.107Z,81.97
2018-11-14T20:18:57.724Z,83.03
2018-11-14T20:21:28.697Z,82.53
2018-11-14T20:23:59.475Z,82.49
2018-11-14T20:26:30.511Z,82.65
2018-11-14T20:29:01.139Z,83.40
2018-11-14T20:31:32.729Z,82.67
2018-11-14T20:34:03.556Z,83.40
2018-11-14T20:36:35.771Z,83.27
2018-11-14T20:39:10.908Z,82.92
2018-11-14T20:41:41.812Z,83.37
2018-11-14T20:44:12.586Z,82.90
2018-11-14T20:46:43.951Z,83.86
2018-11-14T20:49:14.718Z,83.58
2018-11-14T20:51:45.684Z,83.94
2018-11-14T20:54:16.357Z,83.55
2018-11-14T20:56:47.163Z,83.03
2018-11-14T20:59:18.064Z,83.80
2018-11-14T21:01:48.746Z,83.92
2018-11-14T21:04:19.335Z,83.59
2018-11-14T21:06:50.040Z,83.56
2018-11-14T21:09:20.628Z,84.03
2018-11-14T21:11:51.332Z,83.70
2018-11-14T21:14:21.941Z,84.21
2018-11-14T21:16:52.936Z,84.02
2018-11-14T21:19:23.851Z,83.86
2018-11-14T21:21:55.018Z,84.04
2018-11-14T21:24:25.728Z,84.79
2018-11-14T21:26:56.576Z,83.48
2018-11-14T21:29:27.360Z,84.19
2018-11-14T21:31:58.407Z,84.33
2018-11-14T21:34:29.332Z,84.13
2018-11-14T21:37:00.097Z,83.61
2018-11-14T21:39:32.141Z,83.58
2018-11-14T21:42:02.920Z,83.63
2018-11-14T21:44:33.531Z,83.84
2018-11-14T21:47:04.489Z,83.02
2018-11-14T21:49:35.131Z,83.21
2018-11-14T21:52:06.260Z,83.26
2018-11-14T21:54:36.934Z,82.69
2018-11-14T21:57:08.539Z,83.19
2018-11-14T21:59:39.353Z,82.57
2018-11-14T22:02:10.214Z,82.61
2018-11-14T22:04:40.913Z,82.48
2018-11-14T22:07:11.705Z,82.35
2018-11-14T22:09:42.445Z,82.65
2018-11-14T22:12:13.100Z,82.20
2018-11-14T22:14:44.344Z,82.20
2018-11-14T22:17:17.045Z,82.38
2018-11-14T22:19:47.658Z,81.86
2018-11-14T22:22:18.505Z,81.99
2018-11-14T22:24:49.141Z,81.61
2018-11-14T22:27:19.767Z,81.55
2018-11-14T22:29:50.360Z,82.42
2018-11-14T22:32:20.790Z,82.62
2018-11-14T22:34:51.523Z,82.10
2018-11-14T22:37:22.622Z,81.22
2018-11-14T22:39:53.557Z,81.88
2018-11-14T22:42:24.360Z,81.62
2018-11-14T22:44:55.319Z,81.77
2018-11-14T22:47:25.927Z,81.26
2018-11-14T22:49:56.536Z,81.84
2018-11-14T22:52:27.544Z,81.80
2018-11-14T22:54:58.525Z,81.84
2018-11-14T22:57:29.108Z,82.02
2018-11-14T22:59:59.802Z,81.87
2018-11-14T23:02:30.531Z,81.81
2018-11-14T23:05:01.745Z,81.47
2018-11-14T23:07:32.124Z,81.78
2018-11-14T23:10:03.088Z,82.05
2018-11-14T23:12:33.655Z,82.71
2018-11-14T23:15:04.495Z,81.93
2018-11-14T23:17:35.110Z,82.71
2018-11-14T23:20:07.953Z,82.93
2018-11-14T23:22:38.568Z,82.91
2018-11-14T23:25:10.144Z,83.14
2018-11-14T23:27:42.820Z,82.49
2018-11-14T23:30:14.341Z,82.02
2018-11-14T23:32:46.441Z,82.40
2018-11-14T23:35:21.199Z,81.98
2018-11-14T23:37:53.232Z,83.00
2018-11-14T23:40:23.826Z,82.93
2018-11-14T23:42:54.435Z,82.26
2018-11-14T23:45:25.825Z,81.74
2018-11-14T23:47:56.997Z,82.45
2018-11-14T23:50:29.179Z,81.98
2018-11-14T23:53:01.792Z,83.10
2018-11-14T23:55:33.107Z,82.95
2018-11-14T23:58:03.695Z,82.84
